createdAt,value
2019-06-20T00:01:47.658Z,20.20
2019-06-20T00:04:16.200Z,20.20
2019-06-20T00:06:44.781Z,20.20
2019-06-20T00:09:13.264Z,20.20
2019-06-20T00:11:41.816Z,20.20
2019-06-20T00:14:10.318Z,20.10
2019-06-20T00:16:38.799Z,20.10
2019-06-20T00:19:07.285Z,20.10
2019-06-20T00:21:35.840Z,20.10
2019-06-20T00:24:04.820Z,20.10
2019-06-20T00:26:33.365Z,20.10
2019-06-20T00:29:01.850Z,20.10
2019-06-20T00:31:30.438Z,20.10
2019-06-20T00:33:59.096Z,20.10
2019-06-20T00:36:27.578Z,20.00
2019-06-20T00:38:56.108Z,20.00
2019-06-20T00:41:24.646Z,20.00
2019-06-20T00:43:53.207Z,19.90
2019-06-20T00:46:21.809Z,19.90
2019-06-20T00:48:50.316Z,19.80
2019-06-20T00:51:18.799Z,19.80
2019-06-20T00:53:47.300Z,19.80
2019-06-20T00:56:15.776Z,19.80
2019-06-20T00:58:44.253Z,19.80
2019-06-20T01:01:12.813Z,19.70
2019-06-20T01:03:41.357Z,19.70
2019-06-20T01:06:09.873Z,19.60
2019-06-20T01:08:38.361Z,19.60
2019-06-20T01:11:06.989Z,19.60
2019-06-20T01:13:35.563Z,19.60
2019-06-20T01:16:04.735Z,19.60
2019-06-20T01:18:33.328Z,19.60
2019-06-20T01:21:02.093Z,19.60
2019-06-20T01:23:30.641Z,19.60
2019-06-20T01:25:59.121Z,19.60
2019-06-20T01:28:27.638Z,19.60
2019-06-20T01:30:56.132Z,19.60
2019-06-20T01:33:24.672Z,19.50
2019-06-20T01:35:53.180Z,19.60
2019-06-20T01:38:21.652Z,19.50
2019-06-20T01:40:50.145Z,19.50
2019-06-20T01:43:18.723Z,19.50
2019-06-20T01:45:47.294Z,19.40
2019-06-20T01:48:15.771Z,19.40
2019-06-20T01:50:44.237Z,19.30
2019-06-20T01:53:12.755Z,19.30
2019-06-20T01:55:42.003Z,19.20
2019-06-20T01:58:10.467Z,19.20
2019-06-20T02:00:44.524Z,19.20
2019-06-20T02:03:14.382Z,19.10
2019-06-20T02:05:43.218Z,19.10
2019-06-20T02:08:11.741Z,19.10
2019-06-20T02:10:40.210Z,19.10
2019-06-20T02:13:08.842Z,19.00
2019-06-20T02:15:37.410Z,19.10
2019-06-20T02:18:06.020Z,19.10
2019-06-20T02:20:49.618Z,19.10
2019-06-20T02:23:18.156Z,19.10
2019-06-20T02:25:46.702Z,19.10
2019-06-20T02:28:15.905Z,19.10
2019-06-20T02:30:44.491Z,19.00
2019-06-20T02:33:13.015Z,19.10
2019-06-20T02:35:41.596Z,19.10
2019-06-20T02:38:10.141Z,19.10
2019-06-20T02:40:38.679Z,19.10
2019-06-20T02:43:07.336Z,19.10
2019-06-20T02:45:35.982Z,19.00
2019-06-20T02:48:05.864Z,19.10
2019-06-20T02:50:34.549Z,19.10
2019-06-20T02:53:04.893Z,19.10
2019-06-20T02:55:33.513Z,19.10
2019-06-20T02:58:02.170Z,19.10
2019-06-20T03:00:59.563Z,19.10
2019-06-20T03:03:28.971Z,19.10
2019-06-20T03:05:58.581Z,19.10
2019-06-20T03:08:27.725Z,19.10
2019-06-20T03:10:57.173Z,19.10
2019-06-20T03:13:25.726Z,19.00
2019-06-20T03:15:54.230Z,19.00
2019-06-20T03:18:22.707Z,19.10
2019-06-20T03:20:51.253Z,19.00
2019-06-20T03:23:19.831Z,19.00
2019-06-20T03:25:48.475Z,19.00
2019-06-20T03:28:16.943Z,19.00
2019-06-20T03:30:45.532Z,19.00
2019-06-20T03:33:14.011Z,19.00
2019-06-20T03:35:42.502Z,19.00
2019-06-20T03:38:11.017Z,19.00
2019-06-20T03:40:39.515Z,19.00
2019-06-20T03:43:08.045Z,19.00
2019-06-20T03:45:36.624Z,19.00
2019-06-20T03:48:05.261Z,19.10
2019-06-20T03:50:33.905Z,19.10
2019-06-20T03:53:02.439Z,19.10
2019-06-20T03:55:32.744Z,19.10
2019-06-20T03:58:02.090Z,19.10
2019-06-20T04:00:35.322Z,19.10
2019-06-20T04:03:05.787Z,19.10
2019-06-20T04:05:35.003Z,19.10
2019-06-20T04:08:03.631Z,19.10
2019-06-20T04:10:32.129Z,19.10
2019-06-20T04:13:00.601Z,19.10
2019-06-20T04:15:29.076Z,19.10
2019-06-20T04:17:58.409Z,19.10
2019-06-20T04:20:26.891Z,19.10
2019-06-20T04:22:55.365Z,19.10
2019-06-20T04:25:23.873Z,19.10
2019-06-20T04:27:52.365Z,19.10
2019-06-20T04:30:20.846Z,19.10
2019-06-20T04:32:49.385Z,19.10
2019-06-20T04:35:17.890Z,19.10
2019-06-20T04:37:46.413Z,19.10
2019-06-20T04:40:15.951Z,19.10
2019-06-20T04:42:44.431Z,19.10
2019-06-20T04:45:14.726Z,19.10
2019-06-20T04:47:43.969Z,19.10
2019-06-20T04:50:12.521Z,19.10
2019-06-20T04:52:41.094Z,19.20
2019-06-20T04:55:10.312Z,19.20
2019-06-20T04:57:38.858Z,19.20
2019-06-20T05:00:07.911Z,19.10
2019-06-20T05:02:36.446Z,19.10
2019-06-20T05:05:06.928Z,19.10
2019-06-20T05:07:35.438Z,19.10
2019-06-20T05:10:07.068Z,19.20
2019-06-20T05:12:35.541Z,19.20
2019-06-20T05:15:05.735Z,19.20
2019-06-20T05:17:34.241Z,19.20
2019-06-20T05:20:03.045Z,19.20
2019-06-20T05:22:31.702Z,19.20
2019-06-20T05:25:00.189Z,19.40
2019-06-20T05:27:28.805Z,19.90
2019-06-20T05:29:57.385Z,20.60
2019-06-20T05:32:26.058Z,21.20
2019-06-20T05:34:57.418Z,21.60
2019-06-20T05:37:25.961Z,21.50
2019-06-20T05:39:54.536Z,21.30
2019-06-20T05:42:23.181Z,21.00
2019-06-20T05:44:51.673Z,20.80
2019-06-20T05:47:20.164Z,20.80
2019-06-20T05:49:50.395Z,20.90
2019-06-20T05:52:19.942Z,21.10
2019-06-20T05:54:48.858Z,21.10
2019-06-20T05:57:18.352Z,21.40
2019-06-20T05:59:48.159Z,21.50
2019-06-20T06:02:16.914Z,21.50
2019-06-20T06:04:46.355Z,21.50
2019-06-20T06:07:14.961Z,21.60
2019-06-20T06:09:45.547Z,21.80
2019-06-20T06:12:15.081Z,21.80
2019-06-20T06:14:43.929Z,21.70
2019-06-20T06:17:12.544Z,21.90
2019-06-20T06:19:41.767Z,22.60
2019-06-20T06:22:10.531Z,23.00
2019-06-20T06:24:39.091Z,23.40
2019-06-20T06:27:07.673Z,23.80
2019-06-20T06:29:36.186Z,24.80
2019-06-20T06:32:04.968Z,25.80
2019-06-20T06:34:33.684Z,26.60
2019-06-20T06:37:02.552Z,26.60
2019-06-20T06:39:32.031Z,26.40
2019-06-20T06:42:00.595Z,26.10
2019-06-20T06:44:31.671Z,25.80
2019-06-20T06:47:00.228Z,25.30
2019-06-20T06:49:30.406Z,24.90
2019-06-20T06:52:00.646Z,24.40
2019-06-20T06:54:29.426Z,23.90
2019-06-20T06:56:58.247Z,23.60
2019-06-20T06:59:26.795Z,23.30
2019-06-20T07:01:55.464Z,23.00
2019-06-20T07:04:24.361Z,22.70
2019-06-20T07:06:52.983Z,22.40
2019-06-20T07:09:21.504Z,22.20
2019-06-20T07:11:51.840Z,22.00
2019-06-20T07:14:20.576Z,22.00
2019-06-20T07:16:59.916Z,22.10
2019-06-20T07:19:19.442Z,21.90
2019-06-20T07:21:48.013Z,21.70
2019-06-20T07:24:16.653Z,21.60
2019-06-20T07:26:45.368Z,21.40
2019-06-20T07:29:13.898Z,21.30
2019-06-20T07:31:42.594Z,21.20
2019-06-20T07:34:11.147Z,21.20
2019-06-20T07:36:39.738Z,21.20
2019-06-20T07:39:10.434Z,21.30
2019-06-20T07:41:39.022Z,21.30
2019-06-20T07:44:09.362Z,21.20
2019-06-20T07:46:38.077Z,21.40
2019-06-20T07:49:06.622Z,22.40
2019-06-20T07:51:35.215Z,23.60
2019-06-20T07:54:04.807Z,24.10
2019-06-20T07:56:33.926Z,24.00
2019-06-20T07:59:03.183Z,23.70
2019-06-20T08:01:31.911Z,23.40
2019-06-20T08:04:00.415Z,23.10
2019-06-20T08:06:31.688Z,23.00
2019-06-20T08:09:01.626Z,23.00
2019-06-20T08:11:30.215Z,22.90
2019-06-20T08:13:58.895Z,22.90
2019-06-20T08:16:27.673Z,23.00
2019-06-20T08:18:57.369Z,23.30
2019-06-20T08:21:27.587Z,23.40
2019-06-20T08:23:56.204Z,23.50
2019-06-20T08:26:24.844Z,23.40
2019-06-20T08:29:10.413Z,23.20
2019-06-20T08:31:24.930Z,23.20
2019-06-20T08:33:53.507Z,23.20
2019-06-20T08:36:22.089Z,23.20
2019-06-20T08:38:50.685Z,23.20
2019-06-20T08:41:19.350Z,23.20
2019-06-20T08:43:47.992Z,23.40
2019-06-20T08:46:18.083Z,23.80
2019-06-20T08:48:46.960Z,24.20
2019-06-20T08:51:15.563Z,24.60
2019-06-20T08:53:44.183Z,24.80
2019-06-20T08:56:12.912Z,24.80
2019-06-20T08:58:41.540Z,24.80
2019-06-20T09:01:10.127Z,24.70
2019-06-20T09:03:38.789Z,24.50
2019-06-20T09:06:07.778Z,24.30
2019-06-20T09:08:36.587Z,24.10
2019-06-20T09:11:05.285Z,24.20
2019-06-20T09:13:34.372Z,24.10
2019-06-20T09:16:03.159Z,24.10
2019-06-20T09:18:31.705Z,24.00
2019-06-20T09:21:02.138Z,23.80
2019-06-20T09:23:30.864Z,23.80
2019-06-20T09:26:01.991Z,23.90
2019-06-20T09:28:30.666Z,23.80
2019-06-20T09:30:59.368Z,23.80
2019-06-20T09:33:27.938Z,23.80
2019-06-20T09:35:57.488Z,23.70
2019-06-20T09:38:26.393Z,23.80
2019-06-20T09:40:55.045Z,24.00
2019-06-20T09:43:27.496Z,24.00
2019-06-20T09:45:54.506Z,23.70
2019-06-20T09:48:23.261Z,23.40
2019-06-20T09:50:53.022Z,23.10
2019-06-20T09:53:22.487Z,22.80
2019-06-20T09:55:51.781Z,22.70
2019-06-20T09:58:20.744Z,22.70
2019-06-20T10:00:50.779Z,22.70
2019-06-20T10:03:19.667Z,22.60
2019-06-20T10:05:49.334Z,22.60
2019-06-20T10:08:19.135Z,22.70
2019-06-20T10:10:49.319Z,22.70
2019-06-20T10:13:18.500Z,22.60
2019-06-20T10:15:48.012Z,22.60
2019-06-20T10:18:17.716Z,22.70
2019-06-20T10:20:47.253Z,22.70
2019-06-20T10:23:16.356Z,22.80
2019-06-20T10:25:46.256Z,23.00
2019-06-20T10:28:15.532Z,23.10
2019-06-20T10:30:44.745Z,23.10
2019-06-20T10:33:15.024Z,23.30
2019-06-20T10:35:45.123Z,23.60
2019-06-20T10:38:13.837Z,23.80
2019-06-20T10:40:44.761Z,24.00
2019-06-20T10:43:13.023Z,24.10
2019-06-20T10:45:44.032Z,24.10
2019-06-20T10:48:12.828Z,24.30
2019-06-20T10:50:42.604Z,24.30
2019-06-20T10:53:13.005Z,24.50
2019-06-20T10:55:43.226Z,24.70
2019-06-20T10:58:11.909Z,24.90
2019-06-20T11:00:41.752Z,25.10
2019-06-20T11:03:10.793Z,25.30
2019-06-20T11:05:40.913Z,25.30
2019-06-20T11:08:12.184Z,25.40
2019-06-20T11:10:42.197Z,25.30
2019-06-20T11:13:11.505Z,25.20
2019-06-20T11:15:40.614Z,25.20
2019-06-20T11:18:10.691Z,25.40
2019-06-20T11:20:40.873Z,25.50
2019-06-20T11:23:09.558Z,25.60
2019-06-20T11:25:40.339Z,25.60
2019-06-20T11:28:10.458Z,25.60
2019-06-20T11:30:53.027Z,25.60
2019-06-20T11:33:11.195Z,25.60
2019-06-20T11:35:43.491Z,25.50
2019-06-20T11:38:12.321Z,25.60
2019-06-20T11:40:41.649Z,25.80
2019-06-20T11:43:10.290Z,25.80
2019-06-20T11:45:39.066Z,25.70
2019-06-20T11:48:07.749Z,25.60
2019-06-20T11:50:37.785Z,25.60
2019-06-20T11:53:07.068Z,25.60
2019-06-20T11:55:35.733Z,25.70
2019-06-20T11:58:04.560Z,25.60
2019-06-20T12:00:33.246Z,25.60
2019-06-20T12:03:02.004Z,25.70
2019-06-20T12:05:31.848Z,25.70
2019-06-20T12:08:00.500Z,25.70
2019-06-20T12:10:29.136Z,25.60
2019-06-20T12:12:57.693Z,25.60
2019-06-20T12:15:26.351Z,25.60
2019-06-20T12:17:54.894Z,25.80
2019-06-20T12:20:23.546Z,25.80
2019-06-20T12:22:52.319Z,25.90
2019-06-20T12:25:22.958Z,26.10
2019-06-20T12:27:51.644Z,26.20
2019-06-20T12:30:20.880Z,26.10
2019-06-20T12:32:49.635Z,26.00
2019-06-20T12:35:19.774Z,25.90
2019-06-20T12:37:49.777Z,25.50
2019-06-20T12:40:19.075Z,25.00
2019-06-20T12:42:49.239Z,24.60
2019-06-20T12:45:18.429Z,24.30
2019-06-20T12:47:47.196Z,24.20
2019-06-20T12:50:16.760Z,24.10
2019-06-20T12:52:45.880Z,24.10
2019-06-20T12:55:15.732Z,24.00
2019-06-20T12:57:44.384Z,23.90
2019-06-20T13:00:16.510Z,23.80
2019-06-20T13:02:45.527Z,23.80
2019-06-20T13:05:16.617Z,23.80
2019-06-20T13:07:46.411Z,23.80
2019-06-20T13:10:16.262Z,23.90
2019-06-20T13:12:46.163Z,24.00
2019-06-20T13:15:15.213Z,24.10
2019-06-20T13:17:47.027Z,24.20
2019-06-20T13:20:16.022Z,24.10
2019-06-20T13:22:44.869Z,24.10
2019-06-20T13:25:14.188Z,24.20
2019-06-20T13:27:43.401Z,24.30
2019-06-20T13:30:13.395Z,24.40
2019-06-20T13:32:43.843Z,24.40
2019-06-20T13:35:15.765Z,24.50
2019-06-20T13:37:45.737Z,24.40
2019-06-20T13:40:15.932Z,24.30
2019-06-20T13:42:45.957Z,24.20
2019-06-20T13:45:23.410Z,24.10
2019-06-20T13:47:53.811Z,24.10
2019-06-20T13:50:24.409Z,24.20
2019-06-20T13:52:54.746Z,24.30
2019-06-20T13:55:23.526Z,24.30
2019-06-20T13:57:52.033Z,24.30
2019-06-20T14:00:23.896Z,24.30
2019-06-20T14:02:52.526Z,24.20
2019-06-20T14:05:21.224Z,24.10
2019-06-20T14:07:53.440Z,24.30
2019-06-20T14:10:20.594Z,24.40
2019-06-20T14:12:49.271Z,24.30
2019-06-20T14:15:19.547Z,24.10
2019-06-20T14:17:49.854Z,24.10
2019-06-20T14:20:19.814Z,24.00
2019-06-20T14:22:49.418Z,24.00
2019-06-20T14:25:20.013Z,24.00
2019-06-20T14:27:51.718Z,24.00
2019-06-20T14:30:37.884Z,23.90
2019-06-20T14:33:10.203Z,23.90
2019-06-20T14:38:29.178Z,24.00
2019-06-20T14:46:35.650Z,23.90
2019-06-20T14:49:07.523Z,24.00
2019-06-20T14:51:37.912Z,24.00
2019-06-20T14:54:07.086Z,24.10
2019-06-20T14:56:37.359Z,24.00
2019-06-20T14:59:06.070Z,24.00
2019-06-20T17:44:34.826Z,22.20
2019-06-20T17:47:03.502Z,22.10
2019-06-20T17:49:32.340Z,22.00
2019-06-20T17:52:00.937Z,21.90
2019-06-20T17:54:29.494Z,21.80
2019-06-20T17:56:58.421Z,21.70
2019-06-20T17:59:27.441Z,21.60
2019-06-20T18:01:56.114Z,21.50
2019-06-20T18:04:26.768Z,21.60
2019-06-20T18:06:55.136Z,21.60
2019-06-20T18:09:23.740Z,21.60
2019-06-20T18:11:52.433Z,21.60
2019-06-20T18:14:21.018Z,21.70
2019-06-20T18:16:49.640Z,21.70
2019-06-20T18:19:18.274Z,21.70
2019-06-20T18:21:46.977Z,21.70
2019-06-20T18:24:15.548Z,21.60
2019-06-20T18:26:44.439Z,21.60
2019-06-20T18:29:13.104Z,21.60
2019-06-20T18:31:44.939Z,21.60
2019-06-20T18:34:29.114Z,21.60
2019-06-20T18:36:45.692Z,21.50
2019-06-20T18:39:14.353Z,21.50
2019-06-20T18:41:47.417Z,21.50
2019-06-20T18:44:14.945Z,21.40
2019-06-20T18:46:43.726Z,21.40
2019-06-20T18:49:12.562Z,21.40
2019-06-20T18:51:41.302Z,21.30
2019-06-20T18:54:09.776Z,21.30
2019-06-20T18:56:38.343Z,21.20
2019-06-20T18:59:07.083Z,21.10
2019-06-20T19:01:35.624Z,21.10
2019-06-20T19:04:05.286Z,21.10
2019-06-20T19:06:36.328Z,21.10
2019-06-20T19:09:07.862Z,21.00
2019-06-20T19:11:37.910Z,21.00
2019-06-20T19:14:06.673Z,20.90
2019-06-20T19:16:35.210Z,20.90
2019-06-20T19:19:04.957Z,20.80
2019-06-20T19:21:36.851Z,20.70
2019-06-20T19:24:07.826Z,20.70
2019-06-20T19:26:37.248Z,20.60
2019-06-20T19:29:05.920Z,20.60
2019-06-20T19:31:36.039Z,20.50
2019-06-20T19:34:04.679Z,20.50
2019-06-20T19:36:33.252Z,20.40
2019-06-20T19:39:01.960Z,20.30
2019-06-20T19:41:31.897Z,20.30
2019-06-20T19:44:01.383Z,20.20
2019-06-20T19:46:29.922Z,20.10
2019-06-20T19:48:59.555Z,20.10
2019-06-20T19:51:28.158Z,20.00
2019-06-20T19:53:56.822Z,20.00
2019-06-20T19:56:25.522Z,19.90
2019-06-20T19:58:55.604Z,19.90
2019-06-20T20:01:25.431Z,19.90
2019-06-20T20:03:54.090Z,19.80
2019-06-20T20:06:24.523Z,19.70
2019-06-20T20:08:54.869Z,19.70
2019-06-20T20:11:23.452Z,19.60
2019-06-20T20:13:52.080Z,19.50
2019-06-20T20:16:20.703Z,19.50
2019-06-20T20:18:50.848Z,19.50
2019-06-20T20:21:19.653Z,19.50
2019-06-20T20:23:48.288Z,19.40
2019-06-20T20:26:16.774Z,19.30
2019-06-20T20:28:46.515Z,19.30
2019-06-20T20:31:15.341Z,19.30
2019-06-20T20:33:45.440Z,19.20
2019-06-20T20:36:24.558Z,19.10
2019-06-20T20:38:47.256Z,19.00
2019-06-20T20:41:15.930Z,19.00
2019-06-20T20:43:47.580Z,18.90
2019-06-20T20:46:16.312Z,18.80
2019-06-20T20:48:45.208Z,18.70
2019-06-20T20:51:13.830Z,18.70
2019-06-20T20:53:42.585Z,18.70
2019-06-20T20:56:11.286Z,18.60
2019-06-20T20:58:40.216Z,18.50
2019-06-20T21:01:12.920Z,18.50
2019-06-20T21:03:41.495Z,18.40
2019-06-20T21:06:10.198Z,18.40
2019-06-20T21:08:38.903Z,18.30
2019-06-20T21:11:07.546Z,18.30
2019-06-20T21:13:36.119Z,18.20
2019-06-20T21:16:05.041Z,18.20
2019-06-20T21:18:34.986Z,18.20
2019-06-20T21:21:03.600Z,18.10
2019-06-20T21:23:32.258Z,18.10
2019-06-20T21:26:00.858Z,18.10
2019-06-20T21:28:29.463Z,18.10
2019-06-20T21:30:59.660Z,18.10
2019-06-20T21:33:28.166Z,18.00
2019-06-20T21:36:07.899Z,18.00
2019-06-20T21:38:27.779Z,17.90
2019-06-20T21:40:59.463Z,17.90
2019-06-20T21:43:28.078Z,17.80
2019-06-20T21:45:56.788Z,17.80
2019-06-20T21:48:25.346Z,17.80
2019-06-20T21:50:53.964Z,17.80
2019-06-20T21:53:22.607Z,17.70
2019-06-20T21:55:51.294Z,17.70
2019-06-20T21:58:21.260Z,17.70
2019-06-20T22:00:53.107Z,17.60
2019-06-20T22:03:21.770Z,17.50
2019-06-20T22:05:50.349Z,17.50
2019-06-20T22:08:19.148Z,17.50
2019-06-20T22:10:49.490Z,17.50
2019-06-20T22:13:18.185Z,17.40
2019-06-20T22:15:46.863Z,17.40
2019-06-20T22:18:15.429Z,17.40
2019-06-20T22:20:44.147Z,17.30
2019-06-20T22:23:12.743Z,17.30
2019-06-20T22:25:41.367Z,17.20
2019-06-20T22:28:09.953Z,17.20
2019-06-20T22:30:50.289Z,17.20
2019-06-20T22:33:20.397Z,17.10
2019-06-20T22:35:48.940Z,17.10
2019-06-20T22:38:18.179Z,17.10
2019-06-20T22:40:46.963Z,17.00
2019-06-20T22:43:16.878Z,17.00
2019-06-20T22:45:45.679Z,16.90
2019-06-20T22:48:15.132Z,16.90
2019-06-20T22:50:44.002Z,16.90
2019-06-20T22:53:12.750Z,16.90
2019-06-20T22:55:41.406Z,16.80
2019-06-20T22:58:10.016Z,16.80
2019-06-20T23:00:38.761Z,16.80
2019-06-20T23:03:07.429Z,16.80
2019-06-20T23:05:36.225Z,16.70
2019-06-20T23:08:05.039Z,16.70
2019-06-20T23:10:33.743Z,16.60
2019-06-20T23:13:03.311Z,16.60
2019-06-20T23:15:32.104Z,16.60
2019-06-20T23:18:00.661Z,16.60
2019-06-20T23:20:30.267Z,16.50
2019-06-20T23:23:00.151Z,16.50
2019-06-20T23:25:28.834Z,16.50
2019-06-20T23:27:57.664Z,16.50
2019-06-20T23:30:26.440Z,16.40
2019-06-20T23:32:55.033Z,16.40
2019-06-20T23:35:23.596Z,16.40
2019-06-20T23:37:52.203Z,16.30
2019-06-20T23:40:20.988Z,16.40
2019-06-20T23:42:49.700Z,16.30
2019-06-20T23:45:18.809Z,16.30
2019-06-20T23:47:47.518Z,16.30
2019-06-20T23:50:18.678Z,16.20
2019-06-20T23:52:51.168Z,16.20
2019-06-20T23:55:19.908Z,16.20
2019-06-20T23:57:48.525Z,16.10
